sensor_id;sensor_type;location;lat;lon;timestamp;temperature;humidity
23713;DHT22;12035;49.978;8.298;2023-07-30T00:03:14;24.70;59.20
23713;DHT22;12035;49.978;8.298;2023-07-30T00:08:11;24.60;59.40
23713;DHT22;12035;49.978;8.298;2023-07-30T00:13:08;24.60;59.50
23713;DHT22;12035;49.978;8.298;2023-07-30T00:18:05;24.50;59.60
23713;DHT22;12035;49.978;8.298;2023-07-30T00:23:04;24.40;59.70
23713;DHT22;12035;49.978;8.298;2023-07-30T00:28:01;24.40;59.80
23713;DHT22;12035;49.978;8.298;2023-07-30T00:32:58;24.40;59.90
23713;DHT22;12035;49.978;8.298;2023-07-30T00:37:55;24.40;59.80
23713;DHT22;12035;49.978;8.298;2023-07-30T00:42:54;24.40;59.80
23713;DHT22;12035;49.978;8.298;2023-07-30T00:47:51;24.30;59.80
23713;DHT22;12035;49.978;8.298;2023-07-30T00:52:48;24.30;59.80
23713;DHT22;12035;49.978;8.298;2023-07-30T00:57:46;24.30;59.70
23713;DHT22;12035;49.978;8.298;2023-07-30T01:02:44;24.30;59.70
23713;DHT22;12035;49.978;8.298;2023-07-30T01:07:41;24.40;59.60
23713;DHT22;12035;49.978;8.298;2023-07-30T01:12:39;24.40;59.50
23713;DHT22;12035;49.978;8.298;2023-07-30T01:17:37;24.50;59.40
23713;DHT22;12035;49.978;8.298;2023-07-30T01:22:36;24.50;59.20
23713;DHT22;12035;49.978;8.298;2023-07-30T01:27:37;24.50;59.10
23713;DHT22;12035;49.978;8.298;2023-07-30T01:32:37;24.50;58.90
23713;DHT22;12035;49.978;8.298;2023-07-30T01:37:37;24.40;58.90
23713;DHT22;12035;49.978;8.298;2023-07-30T01:42:36;24.40;59.10
23713;DHT22;12035;49.978;8.298;2023-07-30T01:47:34;24.30;59.20
23713;DHT22;12035;49.978;8.298;2023-07-30T01:52:31;24.20;59.40
23713;DHT22;12035;49.978;8.298;2023-07-30T01:57:29;24.20;59.50
23713;DHT22;12035;49.978;8.298;2023-07-30T02:02:26;24.10;59.50
23713;DHT22;12035;49.978;8.298;2023-07-30T02:07:23;24.00;59.50
23713;DHT22;12035;49.978;8.298;2023-07-30T02:12:20;24.00;59.60
23713;DHT22;12035;49.978;8.298;2023-07-30T02:17:19;24.00;59.60
23713;DHT22;12035;49.978;8.298;2023-07-30T02:22:16;23.90;59.80
23713;DHT22;12035;49.978;8.298;2023-07-30T02:27:13;23.90;59.90
23713;DHT22;12035;49.978;8.298;2023-07-30T02:32:10;23.90;59.90
23713;DHT22;12035;49.978;8.298;2023-07-30T02:37:08;24.00;59.70
23713;DHT22;12035;49.978;8.298;2023-07-30T02:42:05;23.90;59.60
23713;DHT22;12035;49.978;8.298;2023-07-30T02:47:03;23.90;59.70
23713;DHT22;12035;49.978;8.298;2023-07-30T02:52:01;24.00;59.90
23713;DHT22;12035;49.978;8.298;2023-07-30T02:56:59;23.90;60.00
23713;DHT22;12035;49.978;8.298;2023-07-30T03:01:56;23.90;60.30
23713;DHT22;12035;49.978;8.298;2023-07-30T03:06:54;23.90;60.40
23713;DHT22;12035;49.978;8.298;2023-07-30T03:11:51;23.90;60.50
23713;DHT22;12035;49.978;8.298;2023-07-30T03:16:50;23.90;60.70
23713;DHT22;12035;49.978;8.298;2023-07-30T03:21:47;23.80;60.80
23713;DHT22;12035;49.978;8.298;2023-07-30T03:26:44;23.80;61.10
23713;DHT22;12035;49.978;8.298;2023-07-30T03:31:41;23.80;61.00
23713;DHT22;12035;49.978;8.298;2023-07-30T03:36:39;23.80;61.50
23713;DHT22;12035;49.978;8.298;2023-07-30T03:41:36;23.70;61.80
23713;DHT22;12035;49.978;8.298;2023-07-30T03:46:34;23.70;61.80
23713;DHT22;12035;49.978;8.298;2023-07-30T03:51:31;23.70;61.90
23713;DHT22;12035;49.978;8.298;2023-07-30T03:56:30;23.70;61.80
23713;DHT22;12035;49.978;8.298;2023-07-30T04:01:27;23.70;62.00
23713;DHT22;12035;49.978;8.298;2023-07-30T04:06:25;23.70;61.90
23713;DHT22;12035;49.978;8.298;2023-07-30T04:11:22;23.70;61.80
23713;DHT22;12035;49.978;8.298;2023-07-30T04:16:21;23.60;61.80
23713;DHT22;12035;49.978;8.298;2023-07-30T04:21:18;23.70;62.30
23713;DHT22;12035;49.978;8.298;2023-07-30T04:26:16;23.70;62.10
23713;DHT22;12035;49.978;8.298;2023-07-30T04:31:13;23.70;62.10
23713;DHT22;12035;49.978;8.298;2023-07-30T04:36:12;23.80;62.50
23713;DHT22;12035;49.978;8.298;2023-07-30T04:41:09;24.00;61.80
23713;DHT22;12035;49.978;8.298;2023-07-30T04:46:06;24.10;61.40
23713;DHT22;12035;49.978;8.298;2023-07-30T04:51:03;24.10;61.20
23713;DHT22;12035;49.978;8.298;2023-07-30T04:56:02;24.10;62.50
23713;DHT22;12035;49.978;8.298;2023-07-30T05:00:59;24.40;62.20
23713;DHT22;12035;49.978;8.298;2023-07-30T05:05:56;24.70;62.40
23713;DHT22;12035;49.978;8.298;2023-07-30T05:10:53;25.10;62.80
23713;DHT22;12035;49.978;8.298;2023-07-30T05:15:51;25.70;63.20
23713;DHT22;12035;49.978;8.298;2023-07-30T05:20:48;26.40;62.30
23713;DHT22;12035;49.978;8.298;2023-07-30T05:25:46;27.20;60.90
23713;DHT22;12035;49.978;8.298;2023-07-30T05:30:43;27.70;58.00
23713;DHT22;12035;49.978;8.298;2023-07-30T05:35:42;27.80;57.30
23713;DHT22;12035;49.978;8.298;2023-07-30T05:40:41;28.20;57.50
23713;DHT22;12035;49.978;8.298;2023-07-30T05:45:38;28.80;58.20
23713;DHT22;12035;49.978;8.298;2023-07-30T05:50:35;29.50;56.80
23713;DHT22;12035;49.978;8.298;2023-07-30T05:55:34;30.20;55.50
23713;DHT22;12035;49.978;8.298;2023-07-30T06:00:31;30.60;53.70
23713;DHT22;12035;49.978;8.298;2023-07-30T06:05:29;30.90;53.60
23713;DHT22;12035;49.978;8.298;2023-07-30T06:10:26;31.20;51.80
23713;DHT22;12035;49.978;8.298;2023-07-30T06:15:24;31.10;50.10
23713;DHT22;12035;49.978;8.298;2023-07-30T06:20:21;30.70;49.20
23713;DHT22;12035;49.978;8.298;2023-07-30T06:25:18;30.00;48.90
23713;DHT22;12035;49.978;8.298;2023-07-30T06:30:16;29.30;49.30
23713;DHT22;12035;49.978;8.298;2023-07-30T06:35:14;28.80;50.10
23713;DHT22;12035;49.978;8.298;2023-07-30T06:40:11;28.20;50.90
23713;DHT22;12035;49.978;8.298;2023-07-30T06:45:09;27.80;51.60
23713;DHT22;12035;49.978;8.298;2023-07-30T06:50:06;27.40;52.00
23713;DHT22;12035;49.978;8.298;2023-07-30T06:55:06;27.00;52.70
23713;DHT22;12035;49.978;8.298;2023-07-30T07:00:05;26.70;53.30
23713;DHT22;12035;49.978;8.298;2023-07-30T07:05:03;26.50;53.90
23713;DHT22;12035;49.978;8.298;2023-07-30T07:10:01;26.20;54.60
23713;DHT22;12035;49.978;8.298;2023-07-30T07:14:59;26.00;55.50
23713;DHT22;12035;49.978;8.298;2023-07-30T07:19:57;25.70;56.70
23713;DHT22;12035;49.978;8.298;2023-07-30T07:24:54;25.50;57.90
23713;DHT22;12035;49.978;8.298;2023-07-30T07:29:51;25.30;58.60
23713;DHT22;12035;49.978;8.298;2023-07-30T07:34:50;25.10;58.80
23713;DHT22;12035;49.978;8.298;2023-07-30T07:39:48;25.10;59.50
23713;DHT22;12035;49.978;8.298;2023-07-30T07:44:45;25.10;60.00
23713;DHT22;12035;49.978;8.298;2023-07-30T07:49:42;25.10;60.80
23713;DHT22;12035;49.978;8.298;2023-07-30T07:54:41;25.10;61.30
23713;DHT22;12035;49.978;8.298;2023-07-30T07:59:38;25.30;61.30
23713;DHT22;12035;49.978;8.298;2023-07-30T08:04:37;25.50;61.00
23713;DHT22;12035;49.978;8.298;2023-07-30T08:09:34;25.80;61.50
23713;DHT22;12035;49.978;8.298;2023-07-30T08:14:33;26.20;61.40
23713;DHT22;12035;49.978;8.298;2023-07-30T08:19:30;26.70;60.30
23713;DHT22;12035;49.978;8.298;2023-07-30T08:24:27;27.10;59.10
23713;DHT22;12035;49.978;8.298;2023-07-30T08:29:24;27.20;58.50
23713;DHT22;12035;49.978;8.298;2023-07-30T08:34:23;27.30;58.20
23713;DHT22;12035;49.978;8.298;2023-07-30T08:39:20;27.30;58.20
23713;DHT22;12035;49.978;8.298;2023-07-30T08:44:18;27.20;57.80
23713;DHT22;12035;49.978;8.298;2023-07-30T08:49:15;27.20;57.50
23713;DHT22;12035;49.978;8.298;2023-07-30T08:54:13;27.10;57.40
23713;DHT22;12035;49.978;8.298;2023-07-30T08:59:11;27.00;57.00
23713;DHT22;12035;49.978;8.298;2023-07-30T09:04:09;26.70;56.60
23713;DHT22;12035;49.978;8.298;2023-07-30T09:09:07;26.50;57.70
23713;DHT22;12035;49.978;8.298;2023-07-30T09:14:07;26.20;57.40
23713;DHT22;12035;49.978;8.298;2023-07-30T09:19:06;25.70;58.20
23713;DHT22;12035;49.978;8.298;2023-07-30T09:24:04;25.30;59.00
23713;DHT22;12035;49.978;8.298;2023-07-30T09:29:02;25.00;59.10
23713;DHT22;12035;49.978;8.298;2023-07-30T09:34:05;24.70;59.80
23713;DHT22;12035;49.978;8.298;2023-07-30T09:39:02;24.50;59.90
23713;DHT22;12035;49.978;8.298;2023-07-30T09:44:00;24.50;60.00
23713;DHT22;12035;49.978;8.298;2023-07-30T09:48:59;24.50;60.80
23713;DHT22;12035;49.978;8.298;2023-07-30T09:53:56;24.70;60.60
23713;DHT22;12035;49.978;8.298;2023-07-30T09:58:53;24.90;59.70
23713;DHT22;12035;49.978;8.298;2023-07-30T10:03:50;25.10;58.30
23713;DHT22;12035;49.978;8.298;2023-07-30T10:08:49;25.20;57.50
23713;DHT22;12035;49.978;8.298;2023-07-30T10:13:50;25.30;56.00
23713;DHT22;12035;49.978;8.298;2023-07-30T10:18:55;25.30;55.10
23713;DHT22;12035;49.978;8.298;2023-07-30T10:24:00;25.40;53.80
23713;DHT22;12035;49.978;8.298;2023-07-30T10:29:11;25.50;54.80
23713;DHT22;12035;49.978;8.298;2023-07-30T10:34:12;25.70;54.20
23713;DHT22;12035;49.978;8.298;2023-07-30T10:39:14;25.90;52.70
23713;DHT22;12035;49.978;8.298;2023-07-30T10:44:22;25.90;52.20
23713;DHT22;12035;49.978;8.298;2023-07-30T10:49:20;26.10;52.00
23713;DHT22;12035;49.978;8.298;2023-07-30T10:54:19;26.10;52.00
23713;DHT22;12035;49.978;8.298;2023-07-30T10:59:17;26.20;51.90
23713;DHT22;12035;49.978;8.298;2023-07-30T11:04:18;26.40;51.10
23713;DHT22;12035;49.978;8.298;2023-07-30T11:09:22;26.50;50.50
23713;DHT22;12035;49.978;8.298;2023-07-30T11:14:21;26.60;50.40
23713;DHT22;12035;49.978;8.298;2023-07-30T11:19:18;26.70;50.10
23713;DHT22;12035;49.978;8.298;2023-07-30T11:24:16;26.80;49.40
23713;DHT22;12035;49.978;8.298;2023-07-30T11:29:18;26.70;47.80
23713;DHT22;12035;49.978;8.298;2023-07-30T11:34:16;26.60;46.80
23713;DHT22;12035;49.978;8.298;2023-07-30T11:39:14;26.50;46.70
23713;DHT22;12035;49.978;8.298;2023-07-30T11:44:29;26.30;46.40
23713;DHT22;12035;49.978;8.298;2023-07-30T11:49:27;26.20;46.20
23713;DHT22;12035;49.978;8.298;2023-07-30T11:54:24;26.10;46.10
23713;DHT22;12035;49.978;8.298;2023-07-30T11:59:25;26.10;45.20
23713;DHT22;12035;49.978;8.298;2023-07-30T12:04:22;26.00;45.80
23713;DHT22;12035;49.978;8.298;2023-07-30T12:09:21;26.10;46.20
23713;DHT22;12035;49.978;8.298;2023-07-30T12:14:24;26.20;45.30
23713;DHT22;12035;49.978;8.298;2023-07-30T12:19:25;26.30;44.60
23713;DHT22;12035;49.978;8.298;2023-07-30T12:24:23;26.30;44.40
23713;DHT22;12035;49.978;8.298;2023-07-30T12:29:20;26.30;44.80
23713;DHT22;12035;49.978;8.298;2023-07-30T12:34:18;26.30;45.00
23713;DHT22;12035;49.978;8.298;2023-07-30T12:39:16;26.40;44.50
23713;DHT22;12035;49.978;8.298;2023-07-30T12:44:13;26.50;43.50
23713;DHT22;12035;49.978;8.298;2023-07-30T12:49:14;26.60;42.90
23713;DHT22;12035;49.978;8.298;2023-07-30T12:54:14;26.60;43.40
23713;DHT22;12035;49.978;8.298;2023-07-30T12:59:12;26.60;43.40
23713;DHT22;12035;49.978;8.298;2023-07-30T13:04:11;26.60;42.90
23713;DHT22;12035;49.978;8.298;2023-07-30T13:09:09;26.60;42.50
23713;DHT22;12035;49.978;8.298;2023-07-30T13:14:08;26.70;42.70
23713;DHT22;12035;49.978;8.298;2023-07-30T13:19:05;26.80;42.90
23713;DHT22;12035;49.978;8.298;2023-07-30T13:24:02;26.80;42.40
23713;DHT22;12035;49.978;8.298;2023-07-30T13:29:00;26.90;42.30
23713;DHT22;12035;49.978;8.298;2023-07-30T13:33:58;26.90;42.50
23713;DHT22;12035;49.978;8.298;2023-07-30T13:38:55;26.90;42.30
23713;DHT22;12035;49.978;8.298;2023-07-30T13:43:53;26.90;42.40
23713;DHT22;12035;49.978;8.298;2023-07-30T13:48:50;26.90;41.80
23713;DHT22;12035;49.978;8.298;2023-07-30T13:53:48;26.80;41.30
23713;DHT22;12035;49.978;8.298;2023-07-30T13:58:46;26.80;41.60
23713;DHT22;12035;49.978;8.298;2023-07-30T14:03:44;26.70;42.20
23713;DHT22;12035;49.978;8.298;2023-07-30T14:08:41;26.70;42.30
23713;DHT22;12035;49.978;8.298;2023-07-30T14:13:40;26.80;42.40
23713;DHT22;12035;49.978;8.298;2023-07-30T14:18:37;26.90;42.10
23713;DHT22;12035;49.978;8.298;2023-07-30T14:23:35;26.90;42.00
23713;DHT22;12035;49.978;8.298;2023-07-30T14:28:32;26.90;41.10
23713;DHT22;12035;49.978;8.298;2023-07-30T14:33:30;26.90;40.50
23713;DHT22;12035;49.978;8.298;2023-07-30T14:38:27;26.90;40.30
23713;DHT22;12035;49.978;8.298;2023-07-30T14:43:26;26.80;40.50
23713;DHT22;12035;49.978;8.298;2023-07-30T14:48:23;26.80;40.30
23713;DHT22;12035;49.978;8.298;2023-07-30T14:53:22;26.80;40.40
23713;DHT22;12035;49.978;8.298;2023-07-30T14:58:19;26.80;40.10
23713;DHT22;12035;49.978;8.298;2023-07-30T15:03:17;26.80;40.10
23713;DHT22;12035;49.978;8.298;2023-07-30T15:08:14;26.80;40.50
23713;DHT22;12035;49.978;8.298;2023-07-30T15:13:13;26.70;39.70
23713;DHT22;12035;49.978;8.298;2023-07-30T15:18:10;26.70;39.90
23713;DHT22;12035;49.978;8.298;2023-07-30T15:23:07;26.60;39.80
23713;DHT22;12035;49.978;8.298;2023-07-30T15:28:07;26.60;39.80
23713;DHT22;12035;49.978;8.298;2023-07-30T15:33:07;26.50;40.50
23713;DHT22;12035;49.978;8.298;2023-07-30T15:38:05;26.50;40.20
23713;DHT22;12035;49.978;8.298;2023-07-30T15:43:03;26.50;40.40
23713;DHT22;12035;49.978;8.298;2023-07-30T15:48:01;26.50;40.50
23713;DHT22;12035;49.978;8.298;2023-07-30T15:52:59;26.50;40.50
23713;DHT22;12035;49.978;8.298;2023-07-30T15:57:56;26.60;40.30
23713;DHT22;12035;49.978;8.298;2023-07-30T16:02:55;26.60;40.10
23713;DHT22;12035;49.978;8.298;2023-07-30T16:07:52;26.70;40.50
23713;DHT22;12035;49.978;8.298;2023-07-30T16:12:50;26.80;39.80
23713;DHT22;12035;49.978;8.298;2023-07-30T16:17:49;26.80;39.40
23713;DHT22;12035;49.978;8.298;2023-07-30T16:22:46;26.80;39.10
23713;DHT22;12035;49.978;8.298;2023-07-30T16:27:43;26.80;39.60
23713;DHT22;12035;49.978;8.298;2023-07-30T16:32:41;26.80;39.00
23713;DHT22;12035;49.978;8.298;2023-07-30T16:37:38;26.70;39.00
23713;DHT22;12035;49.978;8.298;2023-07-30T16:42:35;26.70;39.20
23713;DHT22;12035;49.978;8.298;2023-07-30T16:47:32;26.60;39.00
23713;DHT22;12035;49.978;8.298;2023-07-30T16:52:31;26.50;39.30
23713;DHT22;12035;49.978;8.298;2023-07-30T16:57:29;26.50;39.70
23713;DHT22;12035;49.978;8.298;2023-07-30T17:02:27;26.50;39.90
23713;DHT22;12035;49.978;8.298;2023-07-30T17:07:25;26.50;40.10
23713;DHT22;12035;49.978;8.298;2023-07-30T17:12:24;26.50;40.10
23713;DHT22;12035;49.978;8.298;2023-07-30T17:17:22;26.40;39.60
23713;DHT22;12035;49.978;8.298;2023-07-30T17:22:19;26.40;39.90
23713;DHT22;12035;49.978;8.298;2023-07-30T17:27:16;26.30;40.10
23713;DHT22;12035;49.978;8.298;2023-07-30T17:32:14;26.20;40.40
23713;DHT22;12035;49.978;8.298;2023-07-30T17:37:12;26.20;40.40
23713;DHT22;12035;49.978;8.298;2023-07-30T17:42:09;26.10;40.60
23713;DHT22;12035;49.978;8.298;2023-07-30T17:47:06;26.10;40.70
23713;DHT22;12035;49.978;8.298;2023-07-30T17:52:06;26.00;40.70
23713;DHT22;12035;49.978;8.298;2023-07-30T17:57:04;26.00;40.80
23713;DHT22;12035;49.978;8.298;2023-07-30T18:02:02;25.90;40.60
23713;DHT22;12035;49.978;8.298;2023-07-30T18:07:00;25.90;40.70
23713;DHT22;12035;49.978;8.298;2023-07-30T18:11:59;25.80;41.40
23713;DHT22;12035;49.978;8.298;2023-07-30T18:16:56;25.70;40.90
23713;DHT22;12035;49.978;8.298;2023-07-30T18:21:53;25.60;41.10
23713;DHT22;12035;49.978;8.298;2023-07-30T18:26:51;25.60;41.40
23713;DHT22;12035;49.978;8.298;2023-07-30T18:31:49;25.50;41.40
23713;DHT22;12035;49.978;8.298;2023-07-30T18:36:46;25.40;41.40
23713;DHT22;12035;49.978;8.298;2023-07-30T18:41:43;25.30;41.70
23713;DHT22;12035;49.978;8.298;2023-07-30T18:46:40;25.30;41.80
23713;DHT22;12035;49.978;8.298;2023-07-30T18:51:39;25.20;42.00
23713;DHT22;12035;49.978;8.298;2023-07-30T18:56:36;25.10;42.20
23713;DHT22;12035;49.978;8.298;2023-07-30T19:01:33;25.10;42.40
23713;DHT22;12035;49.978;8.298;2023-07-30T19:06:30;25.00;42.50
23713;DHT22;12035;49.978;8.298;2023-07-30T19:11:29;24.90;42.70
23713;DHT22;12035;49.978;8.298;2023-07-30T19:16:26;24.80;42.90
23713;DHT22;12035;49.978;8.298;2023-07-30T19:21:23;24.70;43.00
23713;DHT22;12035;49.978;8.298;2023-07-30T19:26:20;24.60;43.10
23713;DHT22;12035;49.978;8.298;2023-07-30T19:31:19;24.50;43.20
23713;DHT22;12035;49.978;8.298;2023-07-30T19:36:16;24.40;43.30
23713;DHT22;12035;49.978;8.298;2023-07-30T19:41:13;24.30;43.50
23713;DHT22;12035;49.978;8.298;2023-07-30T19:46:10;24.30;43.70
23713;DHT22;12035;49.978;8.298;2023-07-30T19:51:09;24.20;43.70
23713;DHT22;12035;49.978;8.298;2023-07-30T19:56:06;24.30;43.90
23713;DHT22;12035;49.978;8.298;2023-07-30T20:01:04;24.20;44.00
23713;DHT22;12035;49.978;8.298;2023-07-30T20:06:02;24.20;44.00
23713;DHT22;12035;49.978;8.298;2023-07-30T20:11:03;24.20;44.10
23713;DHT22;12035;49.978;8.298;2023-07-30T20:16:01;24.10;44.20
23713;DHT22;12035;49.978;8.298;2023-07-30T20:20:58;24.10;44.20
23713;DHT22;12035;49.978;8.298;2023-07-30T20:25:55;24.10;44.30
23713;DHT22;12035;49.978;8.298;2023-07-30T20:30:54;24.00;44.50
23713;DHT22;12035;49.978;8.298;2023-07-30T20:35:51;24.00;44.60
23713;DHT22;12035;49.978;8.298;2023-07-30T20:40:48;24.00;44.70
23713;DHT22;12035;49.978;8.298;2023-07-30T20:45:45;23.90;44.80
23713;DHT22;12035;49.978;8.298;2023-07-30T20:50:43;23.90;45.00
23713;DHT22;12035;49.978;8.298;2023-07-30T20:55:40;23.90;45.20
23713;DHT22;12035;49.978;8.298;2023-07-30T21:00:37;23.80;45.30
23713;DHT22;12035;49.978;8.298;2023-07-30T21:05:34;23.80;45.50
23713;DHT22;12035;49.978;8.298;2023-07-30T21:10:33;23.70;45.60
23713;DHT22;12035;49.978;8.298;2023-07-30T21:15:30;23.70;45.80
23713;DHT22;12035;49.978;8.298;2023-07-30T21:20:27;23.60;46.00
23713;DHT22;12035;49.978;8.298;2023-07-30T21:25:24;23.60;46.30
23713;DHT22;12035;49.978;8.298;2023-07-30T21:30:22;23.50;46.40
23713;DHT22;12035;49.978;8.298;2023-07-30T21:35:19;23.50;46.70
23713;DHT22;12035;49.978;8.298;2023-07-30T21:40:17;23.50;46.90
23713;DHT22;12035;49.978;8.298;2023-07-30T21:45:14;23.40;47.20
23713;DHT22;12035;49.978;8.298;2023-07-30T21:50:12;23.40;47.30
23713;DHT22;12035;49.978;8.298;2023-07-30T21:55:09;23.40;47.50
23713;DHT22;12035;49.978;8.298;2023-07-30T22:00:08;23.30;47.70
23713;DHT22;12035;49.978;8.298;2023-07-30T22:05:06;23.30;48.00
23713;DHT22;12035;49.978;8.298;2023-07-30T22:10:05;23.20;48.30
23713;DHT22;12035;49.978;8.298;2023-07-30T22:15:05;23.20;48.90
23713;DHT22;12035;49.978;8.298;2023-07-30T22:20:04;23.20;49.20
23713;DHT22;12035;49.978;8.298;2023-07-30T22:25:01;23.10;49.40
23713;DHT22;12035;49.978;8.298;2023-07-30T22:30:00;23.10;49.50
23713;DHT22;12035;49.978;8.298;2023-07-30T22:34:57;23.10;49.60
23713;DHT22;12035;49.978;8.298;2023-07-30T22:39:54;23.10;49.70
23713;DHT22;12035;49.978;8.298;2023-07-30T22:44:52;23.10;49.70
23713;DHT22;12035;49.978;8.298;2023-07-30T22:49:50;23.00;49.80
23713;DHT22;12035;49.978;8.298;2023-07-30T22:54:47;23.00;50.00
23713;DHT22;12035;49.978;8.298;2023-07-30T22:59:44;22.90;50.00
23713;DHT22;12035;49.978;8.298;2023-07-30T23:04:41;22.90;50.20
23713;DHT22;12035;49.978;8.298;2023-07-30T23:09:40;22.90;50.50
23713;DHT22;12035;49.978;8.298;2023-07-30T23:14:37;22.80;50.70
23713;DHT22;12035;49.978;8.298;2023-07-30T23:19:34;22.80;50.90
23713;DHT22;12035;49.978;8.298;2023-07-30T23:24:32;22.80;51.00
23713;DHT22;12035;49.978;8.298;2023-07-30T23:29:31;22.80;51.20
23713;DHT22;12035;49.978;8.298;2023-07-30T23:34:28;22.80;51.30
23713;DHT22;12035;49.978;8.298;2023-07-30T23:39:25;22.80;51.30
23713;DHT22;12035;49.978;8.298;2023-07-30T23:44:22;22.80;51.40
23713;DHT22;12035;49.978;8.298;2023-07-30T23:49:20;22.80;51.50
23713;DHT22;12035;49.978;8.298;2023-07-30T23:54:17;22.70;51.40
23713;DHT22;12035;49.978;8.298;2023-07-30T23:59:14;22.70;51.30
